THY6JV LTFM-LTBJ
Flight info
| Callsign | THY6JV |
|---|---|
| Flight time | 0h 44m |
| Altitude | 35000 |
| Route | IVGUS UM19 OVZOK |
| Aircraft | B738/M-SDE2E3FGHIRWXY/LB1 |
Departure
| Time | 2026-05-05 07:18 |
|---|---|
| Airport | İstanbul Airport (LTFM) |
Arrival
| Time | 2026-05-05 08:02 |
|---|---|
| Airport | Adnan Menderes International Airport (LTBJ) |
| Time | Latitude | Longitude | Altitude | Speed | Heading |
|---|---|---|---|---|---|
| 2026-05-05 06:57 | 41.25893 | 28.74987 | 333 ft | 0 kts | 250° |
| 2026-05-05 07:08 | 41.25894 | 28.74989 | 333 ft | 1 kts | 250° |
| 2026-05-05 07:09 | 41.25899 | 28.75007 | 333 ft | 2 kts | 250° |
| 2026-05-05 07:09 | 41.25904 | 28.75025 | 333 ft | 2 kts | 250° |
| 2026-05-05 07:09 | 41.25909 | 28.75043 | 333 ft | 2 kts | 250° |
| 2026-05-05 07:09 | 41.25914 | 28.75063 | 333 ft | 2 kts | 250° |
| 2026-05-05 07:10 | 41.25920 | 28.75082 | 333 ft | 2 kts | 258° |
| 2026-05-05 07:10 | 41.25920 | 28.75101 | 333 ft | 2 kts | 278° |
| 2026-05-05 07:10 | 41.25916 | 28.75120 | 333 ft | 2 kts | 296° |
| 2026-05-05 07:10 | 41.25908 | 28.75136 | 333 ft | 2 kts | 314° |
| 2026-05-05 07:11 | 41.25897 | 28.75148 | 333 ft | 2 kts | 332° |
| 2026-05-05 07:11 | 41.25890 | 28.75152 | 333 ft | 1 kts | 342° |
| 2026-05-05 07:11 | 41.25884 | 28.75154 | 333 ft | 0 kts | 342° |
| 2026-05-05 07:11 | 41.25885 | 28.75154 | 333 ft | 0 kts | 342° |
| 2026-05-05 07:14 | 41.25890 | 28.75154 | 333 ft | 3 kts | 1° |
| 2026-05-05 07:15 | 41.25921 | 28.75199 | 333 ft | 9 kts | 73° |
| 2026-05-05 07:15 | 41.25927 | 28.75283 | 333 ft | 8 kts | 88° |
| 2026-05-05 07:15 | 41.25928 | 28.75360 | 333 ft | 8 kts | 91° |
| 2026-05-05 07:15 | 41.25932 | 28.75435 | 333 ft | 9 kts | 58° |
| 2026-05-05 07:16 | 41.26016 | 28.75453 | 333 ft | 15 kts | 356° |
| 2026-05-05 07:16 | 41.26120 | 28.75446 | 333 ft | 14 kts | 357° |
| 2026-05-05 07:16 | 41.26216 | 28.75443 | 333 ft | 12 kts | 23° |
| 2026-05-05 07:16 | 41.26241 | 28.75541 | 333 ft | 11 kts | 89° |
| 2026-05-05 07:17 | 41.26247 | 28.75643 | 333 ft | 10 kts | 60° |
| 2026-05-05 07:17 | 41.26343 | 28.75667 | 333 ft | 23 kts | 359° |
| 2026-05-05 07:17 | 41.26748 | 28.75655 | 333 ft | 91 kts | 0° |
| 2026-05-05 07:17 | 41.27567 | 28.75639 | 334 ft | 144 kts | 358° |
| 2026-05-05 07:18 | 41.28688 | 28.75621 | 622 ft | 161 kts | 358° |
| 2026-05-05 07:18 | 41.29780 | 28.75702 | 1250 ft | 162 kts | 15° |
| 2026-05-05 07:18 | 41.30699 | 28.76528 | 1846 ft | 168 kts | 44° |
| 2026-05-05 07:18 | 41.31557 | 28.77570 | 2449 ft | 170 kts | 31° |
| 2026-05-05 07:19 | 41.32627 | 28.78358 | 2887 ft | 184 kts | 24° |
| 2026-05-05 07:19 | 41.33803 | 28.79150 | 3411 ft | 195 kts | 25° |
| 2026-05-05 07:19 | 41.35054 | 28.80029 | 3824 ft | 214 kts | 27° |
| 2026-05-05 07:19 | 41.36375 | 28.81030 | 4325 ft | 228 kts | 30° |
| 2026-05-05 07:20 | 41.37646 | 28.82406 | 4804 ft | 246 kts | 49° |
| 2026-05-05 07:20 | 41.38364 | 28.84516 | 5488 ft | 260 kts | 76° |
| 2026-05-05 07:20 | 41.38472 | 28.86919 | 6223 ft | 268 kts | 88° |
| 2026-05-05 07:20 | 41.38100 | 28.89366 | 6997 ft | 278 kts | 108° |
| 2026-05-05 07:21 | 41.37099 | 28.91579 | 7795 ft | 287 kts | 126° |
| 2026-05-05 07:21 | 41.35640 | 28.93430 | 8591 ft | 293 kts | 142° |
| 2026-05-05 07:21 | 41.33803 | 28.94597 | 9424 ft | 297 kts | 165° |
| 2026-05-05 07:21 | 41.31767 | 28.94857 | 10171 ft | 302 kts | 178° |
| 2026-05-05 07:22 | 41.29617 | 28.94840 | 10670 ft | 315 kts | 179° |
| 2026-05-05 07:22 | 41.27384 | 28.94827 | 11283 ft | 324 kts | 180° |
| 2026-05-05 07:22 | 41.25107 | 28.94534 | 11907 ft | 334 kts | 193° |
| 2026-05-05 07:22 | 41.22931 | 28.93431 | 12487 ft | 345 kts | 207° |
| 2026-05-05 07:23 | 41.20753 | 28.91858 | 12893 ft | 361 kts | 210° |
| 2026-05-05 07:23 | 41.18551 | 28.90162 | 13354 ft | 376 kts | 210° |
| 2026-05-05 07:23 | 41.16265 | 28.88415 | 14014 ft | 384 kts | 210° |
| 2026-05-05 07:23 | 41.13947 | 28.86686 | 14851 ft | 388 kts | 210° |
| 2026-05-05 07:24 | 41.11559 | 28.84936 | 15667 ft | 392 kts | 210° |
| 2026-05-05 07:24 | 41.09209 | 28.83177 | 16419 ft | 396 kts | 214° |
| 2026-05-05 07:24 | 41.07169 | 28.80766 | 17156 ft | 396 kts | 234° |
| 2026-05-05 07:24 | 41.05927 | 28.77523 | 17893 ft | 392 kts | 259° |
| 2026-05-05 07:25 | 41.05695 | 28.74011 | 18666 ft | 386 kts | 277° |
| 2026-05-05 07:25 | 41.06021 | 28.70507 | 19404 ft | 387 kts | 283° |
| 2026-05-05 07:25 | 41.06489 | 28.67011 | 20166 ft | 388 kts | 284° |
| 2026-05-05 07:25 | 41.06955 | 28.63485 | 20891 ft | 392 kts | 281° |
| 2026-05-05 07:26 | 41.06979 | 28.59854 | 21554 ft | 402 kts | 265° |
| 2026-05-05 07:26 | 41.06161 | 28.56326 | 22220 ft | 412 kts | 248° |
| 2026-05-05 07:26 | 41.04768 | 28.52986 | 22900 ft | 416 kts | 243° |
| 2026-05-05 07:26 | 41.03258 | 28.49754 | 23554 ft | 419 kts | 241° |
| 2026-05-05 07:27 | 41.01664 | 28.46490 | 24176 ft | 423 kts | 240° |
| 2026-05-05 07:27 | 41.00044 | 28.43240 | 24774 ft | 427 kts | 240° |
| 2026-05-05 07:27 | 40.98420 | 28.40008 | 25371 ft | 430 kts | 240° |
| 2026-05-05 07:27 | 40.96746 | 28.36682 | 25971 ft | 433 kts | 240° |
| 2026-05-05 07:28 | 40.95089 | 28.33387 | 26494 ft | 437 kts | 239° |
| 2026-05-05 07:28 | 40.93413 | 28.30052 | 27037 ft | 441 kts | 239° |
| 2026-05-05 07:28 | 40.91720 | 28.26680 | 27587 ft | 444 kts | 240° |
| 2026-05-05 07:28 | 40.89995 | 28.23242 | 28144 ft | 447 kts | 239° |
| 2026-05-05 07:29 | 40.88290 | 28.19844 | 28669 ft | 450 kts | 240° |
| 2026-05-05 07:29 | 40.86550 | 28.16380 | 29177 ft | 453 kts | 240° |
| 2026-05-05 07:29 | 40.84804 | 28.12903 | 29670 ft | 456 kts | 240° |
| 2026-05-05 07:29 | 40.83044 | 28.09401 | 30161 ft | 459 kts | 240° |
| 2026-05-05 07:30 | 40.81298 | 28.05932 | 30621 ft | 461 kts | 240° |
| 2026-05-05 07:30 | 40.77778 | 27.98955 | 31804 ft | 458 kts | 240° |
| 2026-05-05 07:30 | 40.76017 | 27.95469 | 32041 ft | 457 kts | 240° |
| 2026-05-05 07:31 | 40.72519 | 27.88559 | 32072 ft | 451 kts | 240° |
| 2026-05-05 07:31 | 40.69028 | 27.81673 | 32070 ft | 451 kts | 240° |
| 2026-05-05 07:32 | 40.65531 | 27.74882 | 32068 ft | 451 kts | 238° |
| 2026-05-05 07:32 | 40.61416 | 27.68604 | 32068 ft | 457 kts | 227° |
| 2026-05-05 07:33 | 40.56345 | 27.63547 | 32069 ft | 461 kts | 214° |
| 2026-05-05 07:33 | 40.50507 | 27.59953 | 32068 ft | 468 kts | 202° |
| 2026-05-05 07:34 | 40.44183 | 27.58007 | 32128 ft | 472 kts | 190° |
| 2026-05-05 07:34 | 40.40927 | 27.57701 | 32494 ft | 474 kts | 184° |
| 2026-05-05 07:34 | 40.37608 | 27.57838 | 32887 ft | 477 kts | 177° |
| 2026-05-05 07:35 | 40.34290 | 27.58337 | 33288 ft | 477 kts | 176° |
| 2026-05-05 07:35 | 40.30987 | 27.58631 | 33787 ft | 475 kts | 181° |
| 2026-05-05 07:35 | 40.27699 | 27.58594 | 34072 ft | 474 kts | 185° |
| 2026-05-05 07:35 | 40.24460 | 27.58308 | 34068 ft | 468 kts | 188° |
| 2026-05-05 07:36 | 40.18040 | 27.57293 | 34069 ft | 463 kts | 191° |
| 2026-05-05 07:36 | 40.11657 | 27.56051 | 34070 ft | 465 kts | 192° |
| 2026-05-05 07:37 | 40.05292 | 27.54781 | 34071 ft | 464 kts | 192° |
| 2026-05-05 07:37 | 39.98921 | 27.53526 | 34068 ft | 465 kts | 192° |
| 2026-05-05 07:38 | 39.92528 | 27.52287 | 34067 ft | 465 kts | 191° |
| 2026-05-05 07:38 | 39.86135 | 27.51061 | 34069 ft | 465 kts | 191° |
| 2026-05-05 07:39 | 39.79737 | 27.49842 | 34067 ft | 465 kts | 191° |
| 2026-05-05 07:39 | 39.73330 | 27.48626 | 34063 ft | 465 kts | 192° |
| 2026-05-05 07:40 | 39.66930 | 27.47415 | 34061 ft | 466 kts | 192° |
| 2026-05-05 07:40 | 39.60511 | 27.46208 | 34061 ft | 465 kts | 192° |
| 2026-05-05 07:41 | 39.54110 | 27.45008 | 33851 ft | 462 kts | 192° |
| 2026-05-05 07:41 | 39.50978 | 27.44424 | 33333 ft | 458 kts | 192° |
| 2026-05-05 07:41 | 39.47840 | 27.43839 | 32680 ft | 458 kts | 192° |
| 2026-05-05 07:42 | 39.44680 | 27.43248 | 31944 ft | 459 kts | 192° |
| 2026-05-05 07:42 | 39.41525 | 27.42658 | 31177 ft | 460 kts | 192° |
| 2026-05-05 07:42 | 39.38366 | 27.42048 | 30434 ft | 460 kts | 193° |
| 2026-05-05 07:42 | 39.35250 | 27.41239 | 29892 ft | 452 kts | 197° |
| 2026-05-05 07:43 | 39.32241 | 27.40239 | 29313 ft | 447 kts | 199° |
| 2026-05-05 07:43 | 39.29262 | 27.39130 | 28725 ft | 442 kts | 200° |
| 2026-05-05 07:43 | 39.26353 | 27.37997 | 28136 ft | 439 kts | 201° |
| 2026-05-05 07:43 | 39.23452 | 27.36855 | 27546 ft | 435 kts | 200° |
| 2026-05-05 07:44 | 39.20566 | 27.35724 | 26956 ft | 432 kts | 200° |
| 2026-05-05 07:44 | 39.17726 | 27.34620 | 26372 ft | 429 kts | 199° |
| 2026-05-05 07:44 | 39.14844 | 27.33511 | 25782 ft | 426 kts | 199° |
| 2026-05-05 07:44 | 39.12059 | 27.32449 | 25209 ft | 423 kts | 199° |
| 2026-05-05 07:45 | 39.09241 | 27.31384 | 24632 ft | 420 kts | 199° |
| 2026-05-05 07:45 | 39.06446 | 27.30333 | 24059 ft | 417 kts | 198° |
| 2026-05-05 07:45 | 39.03668 | 27.29293 | 23478 ft | 415 kts | 198° |
| 2026-05-05 07:45 | 39.00912 | 27.28264 | 22913 ft | 412 kts | 198° |
| 2026-05-05 07:46 | 38.98183 | 27.27249 | 22344 ft | 410 kts | 198° |
| 2026-05-05 07:46 | 38.95443 | 27.26231 | 21768 ft | 408 kts | 198° |
| 2026-05-05 07:46 | 38.92746 | 27.25231 | 21199 ft | 406 kts | 198° |
| 2026-05-05 07:46 | 38.90006 | 27.24259 | 20626 ft | 404 kts | 196° |
| 2026-05-05 07:47 | 38.87286 | 27.23519 | 20071 ft | 403 kts | 190° |
| 2026-05-05 07:47 | 38.84510 | 27.23169 | 19515 ft | 401 kts | 184° |
| 2026-05-05 07:47 | 38.81742 | 27.23081 | 18954 ft | 399 kts | 181° |
| 2026-05-05 07:47 | 38.78959 | 27.23118 | 18394 ft | 396 kts | 180° |
| 2026-05-05 07:48 | 38.76231 | 27.23207 | 17841 ft | 393 kts | 179° |
| 2026-05-05 07:48 | 38.73512 | 27.23298 | 17343 ft | 389 kts | 179° |
| 2026-05-05 07:48 | 38.70855 | 27.23366 | 17071 ft | 378 kts | 180° |
| 2026-05-05 07:48 | 38.68261 | 27.23309 | 16884 ft | 364 kts | 185° |
| 2026-05-05 07:49 | 38.65768 | 27.22869 | 16472 ft | 359 kts | 193° |
| 2026-05-05 07:49 | 38.63379 | 27.22132 | 16025 ft | 355 kts | 197° |
| 2026-05-05 07:49 | 38.61024 | 27.21257 | 15592 ft | 351 kts | 199° |
| 2026-05-05 07:49 | 38.58695 | 27.20356 | 15166 ft | 347 kts | 199° |
| 2026-05-05 07:50 | 38.56401 | 27.19479 | 14759 ft | 344 kts | 198° |
| 2026-05-05 07:50 | 38.54110 | 27.18626 | 14345 ft | 340 kts | 198° |
| 2026-05-05 07:50 | 38.51849 | 27.17803 | 13941 ft | 337 kts | 197° |
| 2026-05-05 07:50 | 38.49608 | 27.17000 | 13530 ft | 333 kts | 197° |
| 2026-05-05 07:51 | 38.47402 | 27.16218 | 13138 ft | 330 kts | 197° |
| 2026-05-05 07:51 | 38.45181 | 27.15434 | 12740 ft | 328 kts | 197° |
| 2026-05-05 07:51 | 38.42986 | 27.14661 | 12340 ft | 325 kts | 197° |
| 2026-05-05 07:51 | 38.40841 | 27.13905 | 11951 ft | 322 kts | 197° |
| 2026-05-05 07:52 | 38.38691 | 27.13148 | 11572 ft | 320 kts | 197° |
| 2026-05-05 07:52 | 38.36563 | 27.12397 | 11190 ft | 317 kts | 197° |
| 2026-05-05 07:52 | 38.34432 | 27.11647 | 10811 ft | 315 kts | 197° |
| 2026-05-05 07:52 | 38.32340 | 27.10911 | 10434 ft | 313 kts | 196° |
| 2026-05-05 07:53 | 38.30233 | 27.10170 | 10073 ft | 315 kts | 196° |
| 2026-05-05 07:53 | 38.28127 | 27.09430 | 9932 ft | 305 kts | 196° |
| 2026-05-05 07:53 | 38.26098 | 27.08718 | 9596 ft | 303 kts | 196° |
| 2026-05-05 07:53 | 38.24086 | 27.08011 | 9230 ft | 302 kts | 196° |
| 2026-05-05 07:54 | 38.22059 | 27.07404 | 8979 ft | 295 kts | 188° |
| 2026-05-05 07:54 | 38.20037 | 27.07365 | 8970 ft | 287 kts | 170° |
| 2026-05-05 07:54 | 38.18109 | 27.07887 | 8738 ft | 282 kts | 162° |
| 2026-05-05 07:54 | 38.16216 | 27.08573 | 8359 ft | 283 kts | 161° |
| 2026-05-05 07:55 | 38.14319 | 27.09252 | 7792 ft | 292 kts | 162° |
| 2026-05-05 07:55 | 38.12330 | 27.09910 | 7206 ft | 299 kts | 163° |
| 2026-05-05 07:55 | 38.10292 | 27.10541 | 6577 ft | 297 kts | 164° |
| 2026-05-05 07:55 | 38.08316 | 27.11179 | 5993 ft | 293 kts | 160° |
| 2026-05-05 07:56 | 38.06479 | 27.12215 | 5388 ft | 284 kts | 140° |
| 2026-05-05 07:56 | 38.05283 | 27.14020 | 5034 ft | 259 kts | 107° |
| 2026-05-05 07:56 | 38.04901 | 27.16135 | 4728 ft | 239 kts | 85° |
| 2026-05-05 07:56 | 38.05047 | 27.18162 | 4427 ft | 224 kts | 74° |
| 2026-05-05 07:57 | 38.05478 | 27.19986 | 4186 ft | 208 kts | 55° |
| 2026-05-05 07:57 | 38.06446 | 27.21211 | 4025 ft | 196 kts | 26° |
| 2026-05-05 07:57 | 38.07731 | 27.21818 | 3788 ft | 196 kts | 11° |
| 2026-05-05 07:57 | 38.09059 | 27.21853 | 3586 ft | 196 kts | 350° |
| 2026-05-05 07:58 | 38.10395 | 27.21418 | 3386 ft | 196 kts | 346° |
| 2026-05-05 07:58 | 38.11717 | 27.20969 | 3180 ft | 196 kts | 348° |
| 2026-05-05 07:58 | 38.13039 | 27.20561 | 2978 ft | 195 kts | 348° |
| 2026-05-05 07:58 | 38.14350 | 27.20170 | 2783 ft | 194 kts | 348° |
| 2026-05-05 07:59 | 38.15658 | 27.19785 | 2674 ft | 187 kts | 348° |
| 2026-05-05 07:59 | 38.16904 | 27.19412 | 2495 ft | 177 kts | 348° |
| 2026-05-05 07:59 | 38.18058 | 27.19051 | 2197 ft | 167 kts | 347° |
| 2026-05-05 07:59 | 38.19161 | 27.18701 | 1914 ft | 157 kts | 348° |
| 2026-05-05 08:00 | 38.20182 | 27.18394 | 1740 ft | 148 kts | 348° |
| 2026-05-05 08:00 | 38.21169 | 27.18116 | 1647 ft | 139 kts | 349° |
| 2026-05-05 08:00 | 38.22100 | 27.17836 | 1463 ft | 137 kts | 348° |
| 2026-05-05 08:00 | 38.23019 | 27.17561 | 1261 ft | 138 kts | 348° |
| 2026-05-05 08:01 | 38.23949 | 27.17289 | 1099 ft | 138 kts | 348° |
| 2026-05-05 08:01 | 38.24891 | 27.17003 | 918 ft | 139 kts | 347° |
| 2026-05-05 08:01 | 38.25849 | 27.16712 | 736 ft | 141 kts | 347° |
| 2026-05-05 08:01 | 38.26797 | 27.16429 | 581 ft | 140 kts | 347° |
| 2026-05-05 08:02 | 38.27751 | 27.16140 | 423 ft | 140 kts | 347° |
| 2026-05-05 08:02 | 38.28625 | 27.15882 | 397 ft | 103 kts | 347° |
| 2026-05-05 08:02 | 38.29095 | 27.15740 | 404 ft | 45 kts | 347° |
| 2026-05-05 08:02 | 38.29308 | 27.15674 | 406 ft | 23 kts | 348° |
| 2026-05-05 08:03 | 38.29422 | 27.15641 | 407 ft | 5 kts | 320° |
| 2026-05-05 08:03 | 38.29420 | 27.15586 | 406 ft | 7 kts | 258° |
| 2026-05-05 08:03 | 38.29406 | 27.15504 | 404 ft | 12 kts | 256° |
| 2026-05-05 08:03 | 38.29384 | 27.15387 | 402 ft | 13 kts | 256° |
| 2026-05-05 08:04 | 38.29359 | 27.15264 | 399 ft | 15 kts | 255° |
| 2026-05-05 08:04 | 38.29332 | 27.15152 | 399 ft | 9 kts | 217° |
| 2026-05-05 08:04 | 38.29276 | 27.15151 | 401 ft | 6 kts | 167° |
| 2026-05-05 08:04 | 38.29259 | 27.15138 | 402 ft | 2 kts | 254° |
| 2026-05-05 08:05 | 38.29251 | 27.15095 | 403 ft | 6 kts | 256° |
| 2026-05-05 08:05 | 38.29246 | 27.15070 | 404 ft | 0 kts | 257° |